Latest Weather Observations for Deniliquin

IDN60801

Issued at 10:22 pm EST Thursday 20 September 2018 (issued every 10 minutes, with the page automatically refreshed every 10 minutes)

About weather observations | Map of weather stations | Latest weather observations for NSW | Other Formats
Station Details ID: 074258 Name: DENILIQUIN AIRPORT AWS Lat: -35.56 Lon: 144.95 Height: 94.0 m
Data from the previous 72 hours. | See also: Recent months at Deniliquin
Date/Time
EST
Temp
°C
App
Temp
°C
Dew
Point
°C
Rel
Hum
%
Delta-T
°C
Wind Press
QNH
hPa
Press
MSL
hPa
Rain since
9am
mm
Dir  Spd
km/h
Gust
km/h
Spd
kts
Gust
kts
20/10:00pm 7.6 5.4 -1.4 53 3.4 CALM 0 0 0 0 1025.0 1025.1 0.0
20/09:30pm 8.3 6.1 -1.8 49 3.8 CALM 0 0 0 0 1024.8 1024.9 0.0
20/09:00pm 9.9 7.7 -1.5 45 4.4 CALM 0 0 0 0 1024.5 1024.6 0.0
20/08:30pm 10.6 7.3 -1.1 44 4.6 NNW 6 7 3 4 1024.2 1024.3 0.0
20/08:00pm 11.3 8.0 -1.5 41 5.0 WNW 6 7 3 4 1023.9 1024.0 0.0
20/07:30pm 11.9 7.6 -1.9 38 5.4 WSW 11 11 6 6 1023.5 1023.5 0.0
20/07:00pm 12.3 7.9 -2.3 36 5.7 WSW 11 11 6 6 1023.1 1023.1 0.0
20/06:30pm 12.9 8.4 -3.0 33 6.2 WSW 11 13 6 7 1022.8 1022.8 0.0
20/06:00pm 15.8 10.3 -2.2 29 7.3 SW 17 22 9 12 1022.5 1022.5 0.0
20/05:30pm 16.9 11.7 -2.7 26 8.0 SW 15 22 8 12 1022.1 1022.1 0.0
20/05:00pm 17.6 11.7 -2.1 26 8.2 SW 19 24 10 13 1021.9 1021.9 0.0
20/04:30pm 18.1 11.6 -2.2 25 8.5 WSW 22 39 12 21 1021.6 1021.6 0.0
20/04:00pm 17.8 11.9 -2.5 25 8.4 SW 19 30 10 16 1021.5 1021.5 0.0
20/03:30pm 18.1 12.0 -2.2 25 8.5 SW 20 37 11 20 1021.5 1021.5 0.0
20/03:00pm 17.6 11.7 -1.1 28 7.9 WSW 20 32 11 17 1021.6 1021.6 0.0
20/02:30pm 17.4 10.6 -1.8 27 8.0 SW 24 37 13 20 1021.7 1021.7 0.0
20/02:00pm 17.8 11.5 -0.9 28 8.0 SSW 22 35 12 19 1021.8 1021.8 0.0
20/01:30pm 17.5 11.7 -0.2 30 7.7 WSW 20 32 11 17 1022.1 1022.1 0.0
20/01:00pm 15.9 10.2 -0.8 32 7.0 SW 19 28 10 15 1022.4 1022.4 0.0
20/12:30pm 16.1 10.4 -0.6 32 7.1 SW 19 30 10 16 1022.4 1022.4 0.0
20/12:00pm 15.9 11.0 -0.3 33 6.9 WSW 15 24 8 13 1022.4 1022.4 0.0
20/11:30am 15.6 10.7 -0.2 34 6.7 W 15 28 8 15 1022.4 1022.4 0.0
20/11:00am 14.7 11.1 0.5 38 6.0 W 9 17 5 9 1022.2 1022.2 0.0
20/10:30am 14.1 10.5 0.7 40 5.7 SW 9 17 5 9 1022.3 1022.3 0.0
20/10:00am 13.5 9.2 0.9 42 5.4 SW 13 20 7 11 1022.5 1022.5 0.0
20/09:30am 12.8 9.0 1.8 47 4.8 SW 11 17 6 9 1022.5 1022.5 0.0
20/09:00am 11.5 7.8 2.3 53 4.0 SW 11 17 6 9 1022.4 1022.4 0.0
20/08:30am 9.4 6.1 2.5 62 2.9 SW 9 13 5 7 1022.1 1022.1 0.0
20/08:00am 7.1 3.4 2.2 71 2.0 SW 11 15 6 8 1021.6 1021.6 0.0
20/07:30am 5.1 1.3 1.9 80 1.3 WSW 11 15 6 8 1021.2 1021.2 0.0
20/07:00am 3.3 -0.6 1.2 86 0.8 W 11 13 6 7 1020.8 1020.8 0.0
20/06:30am 1.0 -2.4 -0.8 88 0.6 WNW 7 9 4 5 1020.3 1020.3 0.0
20/06:00am 0.5 -3.0 -1.6 86 0.8 WNW 7 9 4 5 1019.9 1019.9 0.0
20/05:30am 1.0 -2.5 -1.2 85 0.8 WNW 7 11 4 6 1019.5 1019.5 0.0
20/05:00am 1.6 -1.8 -0.6 85 0.8 W 7 9 4 5 1018.9 1018.9 0.0
20/04:30am 1.5 -2.0 -1.1 83 0.9 W 7 9 4 5 1018.8 1018.8 0.0
20/04:00am 1.8 -1.7 -1.1 81 1.0 WNW 7 9 4 5 1018.7 1018.7 0.0
20/03:30am 2.6 -0.6 -0.5 80 1.1 WSW 6 7 3 4 1018.5 1018.5 0.0
20/03:00am 3.1 -0.2 0.0 80 1.2 W 7 9 4 5 1018.4 1018.4 0.0
20/02:30am 3.2 -0.9 -0.4 77 1.3 WSW 11 13 6 7 1018.4 1018.4 0.0
20/02:00am 3.5 -1.1 -1.1 72 1.7 W 13 15 7 8 1018.6 1018.6 0.0
20/01:30am 4.9 1.2 -0.1 70 1.9 WNW 9 13 5 7 1018.7 1018.7 0.0
20/01:00am 5.1 1.3 -0.5 67 2.1 W 9 11 5 6 1018.5 1018.5 0.0
20/12:30am 5.1 0.8 -1.6 62 2.5 WSW 11 13 6 7 1018.4 1018.4 0.0
20/12:00am 5.7 1.8 -1.7 59 2.7 W 9 11 5 6 1018.4 1018.4 0.0
 
Date/Time
EST
Temp
°C
App
Temp
°C
Dew
Point
°C
Rel
Hum
%
Delta-T
°C
Wind Press
QNH
hPa
Press
MSL
hPa
Rain since
9am
mm
Dir  Spd
km/h
Gust
km/h
Spd
kts
Gust
kts
19/11:30pm 7.2 2.2 -1.5 54 3.3 WSW 15 20 8 11 1018.2 1018.2 0.0
19/11:00pm 5.7 1.1 -3.9 50 3.3 W 11 17 6 9 1018.2 1018.2 0.0
19/10:30pm 6.6 2.3 -4.5 45 3.9 SW 9 11 5 6 1018.0 1018.0 0.0
19/10:00pm 7.4 3.3 -3.4 46 3.9 WNW 9 9 5 5 1017.7 1017.7 0.0
19/09:30pm 7.3 3.6 -3.2 47 3.8 NW 7 9 4 5 1017.6 1017.6 0.0
19/09:00pm 8.4 4.8 -3.4 43 4.3 WNW 6 6 3 3 1017.4 1017.4 0.0
19/08:30pm 9.5 5.9 -3.7 39 4.9 W 6 7 3 4 1017.2 1017.2 0.0
19/08:00pm 9.4 5.5 -4.5 37 5.0 WSW 7 9 4 5 1016.9 1016.9 0.0
19/07:30pm 10.1 5.9 -4.3 36 5.3 SW 9 9 5 5 1016.7 1016.7 0.0
19/07:00pm 10.1 5.4 -5.0 34 5.4 SW 11 13 6 7 1016.4 1016.4 0.0
19/06:30pm 11.5 6.8 -4.6 32 5.9 SW 11 15 6 8 1016.1 1016.1 0.0
19/06:00pm 14.0 7.7 -4.2 28 7.0 WSW 20 24 11 13 1015.9 1015.9 0.0
19/05:30pm 15.2 8.9 -4.2 26 7.5 SW 20 28 11 15 1015.3 1015.4 0.0
19/05:00pm 15.4 8.4 -3.5 27 7.5 SW 24 30 13 16 1015.0 1015.1 0.0
19/04:30pm 16.1 9.2 -2.9 27 7.7 SW 24 35 13 19 1014.8 1014.8 0.0
19/04:04pm 16.3 9.7 -3.2 26 7.8 WSW 22 43 12 23 1014.6 1014.6 0.0
19/04:00pm 16.4 9.9 -2.6 27 7.7 WSW 22 33 12 18 1014.6 1014.6 0.0
19/03:30pm 15.0 7.3 -2.9 29 7.1 SW 28 39 15 21 1014.6 1014.6 0.0
19/03:00pm 16.4 8.7 -3.1 26 7.8 SW 28 39 15 21 1014.5 1014.5 0.0
19/02:30pm 16.3 8.4 -1.7 29 7.5 SW 30 43 16 23 1014.7 1014.7 0.0
19/02:00pm 17.0 9.5 -1.6 28 7.8 SW 28 44 15 24 1014.8 1014.8 0.0
19/01:30pm 16.6 9.5 -1.5 29 7.5 WSW 26 41 14 22 1015.0 1015.1 0.0
19/01:00pm 16.1 9.0 -1.0 31 7.2 WSW 26 41 14 22 1015.2 1015.3 0.0
19/12:30pm 15.1 8.0 -1.5 32 6.8 W 26 41 14 22 1015.6 1015.6 0.0
19/12:00pm 15.1 8.2 0.2 36 6.3 WSW 26 37 14 20 1015.6 1015.6 0.0
19/11:30am 13.8 7.2 -0.3 38 5.9 WSW 24 41 13 22 1015.4 1015.5 0.0
19/11:00am 13.3 6.0 -0.3 39 5.6 WSW 28 37 15 20 1015.4 1015.5 0.0
19/10:30am 12.8 5.7 1.2 45 4.9 SW 28 41 15 22 1015.6 1015.6 0.0
19/10:00am 12.0 4.2 1.6 49 4.4 WSW 32 41 17 22 1015.6 1015.6 0.0
19/09:30am 11.3 4.0 2.3 54 3.9 WSW 30 43 16 23 1015.4 1015.5 0.0
19/09:00am 10.5 3.7 3.1 60 3.2 WSW 28 35 15 19 1015.2 1015.3 0.0
19/08:30am 9.3 2.5 3.3 66 2.6 W 28 35 15 19 1015.1 1015.2 0.0
19/08:00am 8.4 2.4 3.5 71 2.1 W 24 32 13 17 1014.7 1014.7 0.0
19/07:30am 7.4 2.3 3.1 74 1.8 W 19 26 10 14 1014.2 1014.2 0.0
19/07:00am 6.3 1.5 2.8 78 1.5 W 17 20 9 11 1014.1 1014.1 0.0
19/06:30am 5.6 0.8 2.6 81 1.2 WNW 17 22 9 12 1013.7 1013.7 0.0
19/06:00am 6.0 1.6 2.5 78 1.4 W 15 20 8 11 1013.4 1013.4 0.0
19/05:30am 6.3 1.9 2.8 78 1.5 WNW 15 20 8 11 1013.1 1013.1 0.0
19/05:00am 7.0 2.3 3.3 77 1.6 W 17 22 9 12 1012.7 1012.7 0.0
19/04:30am 7.5 3.3 3.6 76 1.7 W 15 19 8 10 1012.4 1012.4 0.0
19/04:00am 8.2 3.6 3.9 74 1.9 W 17 22 9 12 1012.2 1012.2 0.0
19/03:30am 9.2 4.7 4.2 71 2.2 W 17 22 9 12 1011.9 1011.9 0.0
19/03:00am 9.5 5.1 4.5 71 2.2 W 17 20 9 11 1011.8 1011.8 0.0
19/02:30am 9.9 5.9 4.7 70 2.3 W 15 20 8 11 1011.9 1011.9 0.0
19/02:00am 10.3 6.0 5.1 70 2.4 W 17 20 9 11 1011.9 1011.9 0.0
19/01:30am 10.4 7.0 6.0 74 2.0 W 13 17 7 9 1012.0 1012.0 0.0
19/01:00am 10.7 7.8 6.3 74 2.1 W 11 15 6 8 1012.2 1012.2 0.0
19/12:30am 11.2 6.7 6.3 72 2.3 WSW 19 28 10 15 1011.9 1011.9 0.0
19/12:00am 11.5 6.9 5.8 68 2.7 WSW 19 24 10 13 1011.3 1011.3 0.0
 
Date/Time
EST
Temp
°C
App
Temp
°C
Dew
Point
°C
Rel
Hum
%
Delta-T
°C
Wind Press
QNH
hPa
Press
MSL
hPa
Rain since
9am
mm
Dir  Spd
km/h
Gust
km/h
Spd
kts
Gust
kts
18/11:30pm 12.1 7.5 6.4 68 2.7 WSW 20 30 11 16 1011.6 1011.6 0.0
18/11:00pm 12.5 8.3 5.9 64 3.1 W 17 22 9 12 1011.6 1011.6 0.0
18/10:30pm 12.6 8.7 5.5 62 3.3 W 15 20 8 11 1012.1 1012.1 0.0
18/10:00pm 13.2 8.4 5.4 59 3.7 W 20 28 11 15 1012.1 1012.1 0.0
18/09:30pm 14.0 8.4 5.6 57 4.0 W 24 32 13 17 1012.6 1012.6 0.0
18/09:00pm 15.0 7.7 4.4 49 4.9 WSW 32 39 17 21 1011.3 1011.3 0.0
18/08:30pm 15.6 8.1 3.7 45 5.5 SW 32 41 17 22 1011.1 1011.1 0.0
18/08:00pm 16.2 9.7 2.9 41 6.1 WSW 26 37 14 20 1011.7 1011.7 0.0
18/07:30pm 17.0 12.1 1.8 36 6.8 WSW 17 24 9 13 1011.0 1011.0 0.0
18/07:00pm 18.0 12.0 1.1 32 7.5 WSW 22 28 12 15 1010.7 1010.7 0.0
18/06:30pm 18.9 11.9 -6.7 17 9.8 W 22 28 12 15 1010.5 1010.5 0.0
18/06:00pm 19.3 13.2 -7.9 15 10.2 W 17 22 9 12 1009.8 1009.8 0.0
18/05:30pm 20.6 14.0 -9.8 12 11.1 WNW 19 26 10 14 1009.9 1009.9 0.0
18/05:00pm 21.7 14.8 -11.2 10 11.9 W 20 28 11 15 1009.7 1009.7 0.0
18/04:30pm 21.8 14.9 -11.1 10 11.9 WNW 20 28 11 15 1009.7 1009.7 0.0
18/04:00pm 22.3 15.5 -12.1 9 12.3 NW 19 28 10 15 1009.6 1009.6 0.0
18/03:30pm 22.1 15.3 -12.2 9 12.2 NW 19 28 10 15 1009.7 1009.7 0.0
18/03:00pm 22.1 15.1 -12.2 9 12.2 NW 20 30 11 16 1010.1 1010.1 0.0
18/02:30pm 22.4 13.9 -12.0 9 12.3 WNW 28 35 15 19 1010.3 1010.3 0.0
18/02:00pm 22.6 14.0 -13.3 8 12.6 NW 28 39 15 21 1010.5 1010.5 0.0
18/01:30pm 22.0 13.1 -12.3 9 12.2 NW 30 44 16 24 1010.8 1010.8 0.0
18/01:00pm 22.2 12.7 -12.1 9 12.3 NW 33 44 18 24 1010.9 1010.9 0.0
18/12:30pm 22.4 13.1 -12.0 9 12.3 NNW 32 44 17 24 1011.5 1011.5 0.0
18/12:00pm 22.5 13.2 -11.9 9 12.4 NNW 32 43 17 23 1012.0 1012.0 0.0
18/11:35am 22.1 12.6 -12.2 9 12.2 NNW 33 52 18 28 1012.5 1012.5 0.0
18/11:30am 22.3 12.8 -12.1 9 12.3 NW 33 43 18 23 1012.8 1012.8 0.0
18/11:00am 21.8 13.0 -11.1 10 11.9 NNW 30 41 16 22 1013.1 1013.1 0.0
18/10:30am 21.0 11.6 -10.5 11 11.4 NNW 33 46 18 25 1013.9 1013.9 0.0
18/10:00am 20.1 11.7 -10.2 12 11.0 NNW 28 39 15 21 1014.4 1014.4 0.0
18/09:30am 18.5 9.9 -8.6 15 9.9 NNW 30 41 16 22 1014.7 1014.7 0.0
18/09:00am 16.9 9.5 -7.5 18 9.0 NNW 24 33 13 18 1014.9 1014.9 0.0
18/08:30am 14.4 8.0 -6.4 23 7.6 N 19 26 10 14 1015.1 1015.2 0.0
18/08:00am 11.7 5.7 -6.6 27 6.5 N 17 20 9 11 1015.3 1015.4 0.0
18/07:30am 9.7 4.0 -7.0 30 5.7 N 15 22 8 12 1015.1 1015.2 0.0
18/07:00am 8.1 2.5 -6.4 35 4.9 NNE 15 19 8 10 1014.6 1014.6 0.0
18/06:30am 7.1 1.5 -6.6 37 4.6 NNE 15 20 8 11 1014.5 1014.5 0.0
18/06:00am 7.4 1.1 -6.3 37 4.6 NNE 19 22 10 12 1014.5 1014.5 0.0
18/05:30am 7.2 1.3 -5.8 39 4.4 NNE 17 20 9 11 1014.9 1014.9 0.0
18/05:00am 7.0 1.5 -5.3 41 4.2 NNE 15 19 8 10 1015.0 1015.1 0.0
18/04:30am 6.6 1.5 -5.4 42 4.1 NE 13 19 7 10 1015.0 1015.1 0.0
18/04:00am 6.8 1.7 -5.5 41 4.2 NNE 13 17 7 9 1015.0 1015.1 0.0
18/03:30am 6.4 1.2 -5.9 41 4.1 NE 13 13 7 7 1015.1 1015.2 0.0
18/03:00am 7.2 2.0 -5.8 39 4.4 NNE 13 17 7 9 1015.3 1015.4 0.0
18/02:30am 7.8 2.7 -5.3 39 4.5 NNE 13 17 7 9 1015.7 1015.7 0.0
18/02:00am 7.9 3.1 -5.9 37 4.7 NNE 11 15 6 8 1015.9 1015.9 0.0
18/01:30am 9.0 3.9 -5.2 36 5.0 NNE 13 19 7 10 1016.0 1016.0 0.0
18/01:00am 9.1 3.6 -5.5 35 5.1 NNE 15 17 8 9 1016.1 1016.1 0.0
18/12:30am 9.3 3.8 -5.4 35 5.2 NNE 15 17 8 9 1016.4 1016.4 0.0
18/12:00am 9.7 4.6 -5.4 34 5.3 NNE 13 17 7 9 1016.5 1016.5 0.0
 
Date/Time
EST
Temp
°C
App
Temp
°C
Dew
Point
°C
Rel
Hum
%
Delta-T
°C
Wind Press
QNH
hPa
Press
MSL
hPa
Rain since
9am
mm
Dir  Spd
km/h
Gust
km/h
Spd
kts
Gust
kts
17/11:30pm 10.2 5.1 -4.9 34 5.4 NNE 13 17 7 9 1016.8 1016.8 0.0
17/11:00pm 10.6 5.5 -5.0 33 5.6 NNE 13 17 7 9 1017.1 1017.1 0.0
17/10:30pm 11.2 6.1 -4.9 32 5.9 NNE 13 17 7 9 1017.3 1017.3 0.0

Other Formats:

Comma delimited format used in spreadsheet applications
http://www.bom.gov.au/fwo/IDN60801/IDN60801.95869.axf

JavaScript Object Notation format (JSON) in row-major order
http://www.bom.gov.au/fwo/IDN60801/IDN60801.95869.json